Time;durP1;ratioP1;P1;durP2;ratioP2;P2;SDS_P1;SDS_P2;PMS_P1;PMS_P2;Temp;Humidity;BMP_temperature;BMP_pressure;BME280_temperature;BME280_humidity;BME280_pressure;Samples;Min_cycle;Max_cycle;Signal;HPM_P1;HPM_P2
2022/01/06 00:01:26;;;;;;;;;;;22.90;23.50;;;;;;5120182;28;19929;-48
2022/01/06 00:03:54;;;;;;;;;;;22.90;23.50;;;;;;5125864;28;19923;-49
2022/01/06 00:06:21;;;;;;;;;;;22.90;23.50;;;;;;5120592;28;20374;-49
2022/01/06 00:08:47;;;;;;;;;;;23.00;23.40;;;;;;5102727;28;19928;-49
2022/01/06 00:11:13;;;;;;;;;;;22.90;23.60;;;;;;5123758;28;19923;-50
2022/01/06 00:13:52;;;;;;;;;;;23.00;23.50;;;;;;5120170;28;19923;-50
2022/01/06 00:16:36;;;;;;;;;;;23.00;23.70;;;;;;5119747;28;19923;-52
2022/01/06 00:24:12;;;;;;;;;;;23.00;23.70;;;;;;5120071;28;19933;-52
2022/01/06 00:26:38;;;;;;;;;;;23.00;23.80;;;;;;5125509;28;19928;-48
2022/01/06 00:29:04;;;;;;;;;;;23.00;23.80;;;;;;5118003;28;20452;-50
2022/01/06 00:31:30;;;;;;;;;;;23.00;23.70;;;;;;5120339;28;20645;-51
2022/01/06 00:33:56;;;;;;;;;;;23.00;23.70;;;;;;5125351;28;20549;-49
2022/01/06 00:36:22;;;;;;;;;;;22.90;23.70;;;;;;5119625;28;19973;-52
2022/01/06 00:38:48;;;;;;;;;;;23.10;23.60;;;;;;5123996;28;19931;-54
2022/01/06 00:41:13;;;;;;;;;;;23.10;23.60;;;;;;5121637;28;19923;-48
2022/01/06 00:43:39;;;;;;;;;;;23.20;23.60;;;;;;5120109;28;20058;-48
2022/01/06 00:46:05;;;;;;;;;;;23.10;23.60;;;;;;5124979;28;19931;-48
2022/01/06 00:48:31;;;;;;;;;;;23.10;23.70;;;;;;5118655;28;20064;-50
2022/01/06 00:50:57;;;;;;;;;;;23.10;23.60;;;;;;5119920;27;19927;-49
2022/01/06 00:53:23;;;;;;;;;;;23.00;23.80;;;;;;5128471;28;19967;-49
2022/01/06 00:55:48;;;;;;;;;;;23.00;23.80;;;;;;5122982;28;19931;-52
2022/01/06 00:58:15;;;;;;;;;;;23.00;23.80;;;;;;5125741;28;19983;-57
2022/01/06 01:00:41;;;;;;;;;;;23.00;23.90;;;;;;5109123;28;19928;-49
2022/01/06 01:03:11;;;;;;;;;;;23.00;23.90;;;;;;5103911;28;20276;-49
2022/01/06 01:05:37;;;;;;;;;;;23.00;23.80;;;;;;5126461;28;19968;-51
2022/01/06 01:08:03;;;;;;;;;;;23.00;23.90;;;;;;5104793;28;20378;-51
2022/01/06 01:10:29;;;;;;;;;;;23.00;23.80;;;;;;5122962;28;19930;-47
2022/01/06 01:12:55;;;;;;;;;;;23.00;23.90;;;;;;5128248;28;19931;-49
2022/01/06 01:15:21;;;;;;;;;;;23.10;23.70;;;;;;5122925;28;19933;-49
2022/01/06 01:17:48;;;;;;;;;;;23.20;23.70;;;;;;5123174;28;19923;-48
2022/01/06 01:20:15;;;;;;;;;;;23.10;23.70;;;;;;5128523;28;19928;-48
2022/01/06 01:22:40;;;;;;;;;;;23.10;23.80;;;;;;5122872;28;21874;-50
2022/01/06 01:25:06;;;;;;;;;;;23.10;23.80;;;;;;5126207;28;19923;-56
2022/01/06 01:27:38;;;;;;;;;;;23.10;23.80;;;;;;5122643;28;19935;-52
2022/01/06 01:30:09;;;;;;;;;;;23.00;23.90;;;;;;5122613;28;19930;-51
2022/01/06 01:32:37;;;;;;;;;;;23.00;23.90;;;;;;5128156;28;19935;-51
2022/01/06 01:35:03;;;;;;;;;;;23.00;23.90;;;;;;5122738;28;19923;-50
2022/01/06 01:37:29;;;;;;;;;;;23.10;23.80;;;;;;5104383;28;19923;-49
2022/01/06 01:39:55;;;;;;;;;;;23.00;23.90;;;;;;5128234;28;20328;-49
2022/01/06 01:42:21;;;;;;;;;;;23.10;23.80;;;;;;5120750;28;19939;-50
2022/01/06 01:44:48;;;;;;;;;;;23.10;23.90;;;;;;5122808;28;20359;-58
2022/01/06 01:47:15;;;;;;;;;;;23.10;24.00;;;;;;5127603;28;20022;-51
2022/01/06 01:49:50;;;;;;;;;;;22.90;24.20;;;;;;5122208;28;19958;-50
2022/01/06 01:52:16;;;;;;;;;;;23.00;24.20;;;;;;5127511;28;19924;-51
2022/01/06 01:54:42;;;;;;;;;;;23.00;24.20;;;;;;5122498;28;19973;-49
2022/01/06 01:57:08;;;;;;;;;;;22.90;24.30;;;;;;5122359;28;19928;-50
2022/01/06 01:59:33;;;;;;;;;;;22.90;24.40;;;;;;5127724;28;20340;-51
2022/01/06 02:01:59;;;;;;;;;;;23.00;24.40;;;;;;5120414;27;19938;-50
2022/01/06 02:04:25;;;;;;;;;;;23.00;24.40;;;;;;5122331;28;19965;-51
2022/01/06 02:06:51;;;;;;;;;;;23.00;24.40;;;;;;5127550;28;19935;-51
2022/01/06 02:09:17;;;;;;;;;;;23.00;24.50;;;;;;5122021;28;20347;-48
2022/01/06 02:11:43;;;;;;;;;;;22.90;24.50;;;;;;5108220;28;19923;-55
2022/01/06 02:14:08;;;;;;;;;;;23.00;24.50;;;;;;5123509;28;19971;-49
2022/01/06 02:16:34;;;;;;;;;;;23.00;24.50;;;;;;5122460;28;20294;-47
2022/01/06 02:19:00;;;;;;;;;;;23.00;24.50;;;;;;5125674;28;19923;-52
2022/01/06 02:21:26;;;;;;;;;;;23.00;24.50;;;;;;5121969;28;20494;-49
2022/01/06 02:23:52;;;;;;;;;;;23.00;24.50;;;;;;5122229;28;20004;-46
2022/01/06 02:26:17;;;;;;;;;;;23.10;24.50;;;;;;5127413;28;20520;-50
2022/01/06 02:28:43;;;;;;;;;;;23.20;24.30;;;;;;5121491;28;20259;-49
2022/01/06 02:31:09;;;;;;;;;;;23.20;24.40;;;;;;5124503;28;19959;-59
2022/01/06 02:33:35;;;;;;;;;;;23.20;24.40;;;;;;5125297;28;19930;-52
2022/01/06 02:36:01;;;;;;;;;;;22.90;24.60;;;;;;5122034;28;19938;-51
2022/01/06 02:38:28;;;;;;;;;;;23.00;24.60;;;;;;5125231;28;19923;-50
2022/01/06 02:40:53;;;;;;;;;;;23.10;24.50;;;;;;5121793;28;19923;-49
2022/01/06 02:43:22;;;;;;;;;;;23.00;24.60;;;;;;5121601;28;20447;-47
2022/01/06 02:45:48;;;;;;;;;;;23.10;24.40;;;;;;5126836;28;19923;-50
2022/01/06 02:48:14;;;;;;;;;;;23.00;24.50;;;;;;5121486;28;19924;-47
2022/01/06 02:50:41;;;;;;;;;;;23.10;24.50;;;;;;5121819;28;20389;-49
2022/01/06 02:53:07;;;;;;;;;;;23.20;24.40;;;;;;5126979;28;19933;-49
2022/01/06 02:55:33;;;;;;;;;;;23.20;24.30;;;;;;5119808;28;20038;-51
2022/01/06 02:57:59;;;;;;;;;;;23.00;24.50;;;;;;5127033;28;20018;-51
2022/01/06 03:00:25;;;;;;;;;;;23.00;24.60;;;;;;5121366;28;20336;-50
2022/01/06 03:02:50;;;;;;;;;;;23.00;24.60;;;;;;5121245;28;20294;-52
2022/01/06 03:05:16;;;;;;;;;;;23.00;24.60;;;;;;5126542;28;19972;-48
2022/01/06 03:07:42;;;;;;;;;;;22.90;24.60;;;;;;5121229;28;19930;-50
2022/01/06 03:10:11;;;;;;;;;;;23.00;24.50;;;;;;5121240;28;20666;-48
2022/01/06 03:12:39;;;;;;;;;;;23.10;24.40;;;;;;5126850;28;20022;-50
2022/01/06 03:15:07;;;;;;;;;;;23.00;24.50;;;;;;5100727;28;19923;-51
2022/01/06 03:17:33;;;;;;;;;;;23.20;24.20;;;;;;5106717;28;20413;-59
2022/01/06 03:19:59;;;;;;;;;;;23.20;24.20;;;;;;5123023;28;19923;-51
2022/01/06 03:22:25;;;;;;;;;;;23.00;24.30;;;;;;5120864;28;19930;-51
2022/01/06 03:24:51;;;;;;;;;;;23.10;24.20;;;;;;5126304;28;19923;-49
2022/01/06 03:27:17;;;;;;;;;;;23.10;24.20;;;;;;5121053;28;19934;-49
2022/01/06 03:29:43;;;;;;;;;;;23.20;24.20;;;;;;5120975;28;19949;-50
2022/01/06 03:32:08;;;;;;;;;;;23.20;24.10;;;;;;5125434;28;20336;-47
2022/01/06 03:34:34;;;;;;;;;;;23.20;24.10;;;;;;5120051;28;19923;-52
2022/01/06 03:37:02;;;;;;;;;;;23.00;24.40;;;;;;5122874;28;19931;-59
2022/01/06 03:39:28;;;;;;;;;;;22.80;24.60;;;;;;5125718;28;19923;-50
2022/01/06 03:41:53;;;;;;;;;;;22.90;24.60;;;;;;5120632;28;21447;-52
2022/01/06 03:44:19;;;;;;;;;;;22.90;24.60;;;;;;5126443;28;19923;-52
2022/01/06 03:46:45;;;;;;;;;;;23.00;24.60;;;;;;5120824;28;19966;-52
2022/01/06 03:49:11;;;;;;;;;;;23.00;24.70;;;;;;5120766;28;19971;-49
2022/01/06 03:51:36;;;;;;;;;;;23.00;24.60;;;;;;5124292;28;20326;-51
2022/01/06 03:54:02;;;;;;;;;;;23.00;24.60;;;;;;5120752;28;19924;-49
2022/01/06 03:56:28;;;;;;;;;;;22.90;24.80;;;;;;5120600;28;19933;-49
2022/01/06 03:58:54;;;;;;;;;;;23.00;24.80;;;;;;5126125;28;20027;-48
2022/01/06 04:01:20;;;;;;;;;;;23.10;24.70;;;;;;5120353;28;19927;-50
2022/01/06 04:03:47;;;;;;;;;;;23.10;24.70;;;;;;5126043;28;19966;-48
2022/01/06 04:06:14;;;;;;;;;;;23.00;24.80;;;;;;5120673;28;19975;-50
2022/01/06 04:08:39;;;;;;;;;;;23.10;24.80;;;;;;5120451;28;20298;-48
2022/01/06 04:11:06;;;;;;;;;;;23.10;24.70;;;;;;5105560;28;19931;-47
2022/01/06 04:13:33;;;;;;;;;;;23.10;24.80;;;;;;5120487;28;19923;-52
2022/01/06 04:16:01;;;;;;;;;;;23.00;24.80;;;;;;5120231;28;20205;-50
2022/01/06 04:18:27;;;;;;;;;;;23.00;24.80;;;;;;5125383;28;19935;-52
2022/01/06 04:20:53;;;;;;;;;;;23.00;24.80;;;;;;5119896;28;19953;-49
2022/01/06 04:23:19;;;;;;;;;;;23.00;24.80;;;;;;5125589;28;20031;-55
2022/01/06 04:25:45;;;;;;;;;;;23.00;24.90;;;;;;5120683;27;19931;-51
2022/01/06 04:28:10;;;;;;;;;;;23.00;24.80;;;;;;5103506;28;19927;-49
2022/01/06 04:30:36;;;;;;;;;;;23.10;24.70;;;;;;5129356;28;19959;-50
2022/01/06 04:33:02;;;;;;;;;;;23.10;24.60;;;;;;5123419;28;19946;-49
2022/01/06 04:35:28;;;;;;;;;;;23.00;24.80;;;;;;5123593;28;20169;-49
2022/01/06 04:37:53;;;;;;;;;;;23.10;24.70;;;;;;5128899;28;19934;-50
2022/01/06 04:40:19;;;;;;;;;;;23.20;24.50;;;;;;5123965;28;20280;-47
2022/01/06 04:42:45;;;;;;;;;;;23.10;24.70;;;;;;5127255;28;19938;-58
2022/01/06 04:45:11;;;;;;;;;;;23.10;24.70;;;;;;5126085;28;19924;-51
2022/01/06 04:47:36;;;;;;;;;;;23.00;24.90;;;;;;5121681;28;19924;-49
2022/01/06 04:50:04;;;;;;;;;;;22.90;24.90;;;;;;5128722;28;19939;-49
2022/01/06 04:52:29;;;;;;;;;;;23.00;24.90;;;;;;5123108;28;19930;-49
2022/01/06 04:54:55;;;;;;;;;;;23.00;24.80;;;;;;5123514;28;19927;-51
2022/01/06 04:57:21;;;;;;;;;;;23.10;24.70;;;;;;5128547;28;19927;-48
2022/01/06 04:59:47;;;;;;;;;;;23.00;24.70;;;;;;5123363;28;19935;-49
2022/01/06 05:02:12;;;;;;;;;;;23.20;24.60;;;;;;5106086;28;19928;-57
2022/01/06 05:04:38;;;;;;;;;;;23.10;24.60;;;;;;5126804;28;19928;-54
2022/01/06 05:07:04;;;;;;;;;;;23.00;24.80;;;;;;5122779;28;19971;-49
2022/01/06 05:09:30;;;;;;;;;;;23.00;24.70;;;;;;5128631;28;19923;-50
2022/01/06 05:11:56;;;;;;;;;;;23.00;24.80;;;;;;5123022;28;19965;-51
2022/01/06 05:14:21;;;;;;;;;;;23.00;24.80;;;;;;5122529;28;20018;-49
2022/01/06 05:16:47;;;;;;;;;;;23.10;24.80;;;;;;5128543;28;19930;-52
2022/01/06 05:19:13;;;;;;;;;;;23.10;24.80;;;;;;5123289;28;20426;-48
2022/01/06 05:21:42;;;;;;;;;;;23.00;24.80;;;;;;5123115;28;19929;-50
2022/01/06 05:24:13;;;;;;;;;;;23.00;24.80;;;;;;5126855;28;19929;-54
2022/01/06 05:26:39;;;;;;;;;;;23.10;24.70;;;;;;5123164;28;19923;-48
2022/01/06 05:29:06;;;;;;;;;;;23.10;24.80;;;;;;5128151;28;19953;-58
2022/01/06 05:31:31;;;;;;;;;;;23.10;24.70;;;;;;5122900;28;20058;-51
2022/01/06 05:33:57;;;;;;;;;;;22.90;24.90;;;;;;5122379;28;19972;-49
2022/01/06 05:36:23;;;;;;;;;;;22.90;24.90;;;;;;5128362;28;20371;-49
2022/01/06 05:38:49;;;;;;;;;;;22.80;25.10;;;;;;5122194;27;19946;-49
2022/01/06 05:41:14;;;;;;;;;;;22.80;25.10;;;;;;5122651;28;20275;-54
2022/01/06 05:43:40;;;;;;;;;;;22.90;25.10;;;;;;5126174;28;19924;-48
2022/01/06 05:46:06;;;;;;;;;;;23.00;25.00;;;;;;5122485;28;20030;-53
2022/01/06 05:48:32;;;;;;;;;;;23.00;24.90;;;;;;5107049;28;20065;-55
2022/01/06 05:50:57;;;;;;;;;;;23.10;24.80;;;;;;5123786;28;19927;-49
2022/01/06 05:53:23;;;;;;;;;;;23.10;24.80;;;;;;5122448;28;19928;-49
2022/01/06 05:55:49;;;;;;;;;;;23.00;24.80;;;;;;5128057;28;19930;-48
2022/01/06 05:58:15;;;;;;;;;;;23.10;24.80;;;;;;5122520;28;19938;-51
2022/01/06 06:00:41;;;;;;;;;;;23.10;24.80;;;;;;5120400;28;20010;-47
2022/01/06 06:03:07;;;;;;;;;;;23.10;24.80;;;;;;5127695;28;19923;-50
2022/01/06 06:05:32;;;;;;;;;;;23.20;24.70;;;;;;5122318;28;19973;-51
2022/01/06 06:07:58;;;;;;;;;;;23.10;24.80;;;;;;5124226;28;19946;-57
2022/01/06 06:10:24;;;;;;;;;;;23.00;24.80;;;;;;5125349;28;19923;-51
2022/01/06 06:12:52;;;;;;;;;;;23.00;24.90;;;;;;5122286;28;20275;-51
2022/01/06 06:15:19;;;;;;;;;;;23.00;24.80;;;;;;5127801;28;20435;-51
2022/01/06 06:17:45;;;;;;;;;;;23.00;24.80;;;;;;5122381;28;19934;-49
2022/01/06 06:20:11;;;;;;;;;;;23.00;24.80;;;;;;5119928;28;19923;-48
2022/01/06 06:22:37;;;;;;;;;;;23.10;24.70;;;;;;5127440;28;20343;-50
2022/01/06 06:25:03;;;;;;;;;;;23.00;24.80;;;;;;5121737;28;20022;-50
2022/01/06 06:27:29;;;;;;;;;;;22.90;24.90;;;;;;5121508;28;19931;-50
2022/01/06 06:29:55;;;;;;;;;;;23.10;24.70;;;;;;5127059;28;19978;-50
2022/01/06 06:32:20;;;;;;;;;;;23.00;24.80;;;;;;5122156;28;19924;-50
2022/01/06 06:34:46;;;;;;;;;;;23.20;24.70;;;;;;5127274;28;19935;-48
2022/01/06 06:37:12;;;;;;;;;;;23.20;24.70;;;;;;5120307;28;20355;-55
2022/01/06 06:39:37;;;;;;;;;;;23.10;24.70;;;;;;5121726;28;19946;-48
2022/01/06 06:42:03;;;;;;;;;;;23.20;24.60;;;;;;5127170;28;19931;-49
2022/01/06 06:44:29;;;;;;;;;;;23.10;24.60;;;;;;5121546;28;19927;-48
2022/01/06 06:46:55;;;;;;;;;;;23.10;24.60;;;;;;5121386;28;19953;-50
2022/01/06 06:49:21;;;;;;;;;;;22.90;24.70;;;;;;5126102;27;19924;-49
2022/01/06 06:51:47;;;;;;;;;;;23.00;24.60;;;;;;5121966;28;20305;-51
2022/01/06 06:54:13;;;;;;;;;;;23.00;24.70;;;;;;5127231;28;19927;-49
2022/01/06 06:56:40;;;;;;;;;;;23.10;24.50;;;;;;5119381;28;20386;-52
2022/01/06 06:59:06;;;;;;;;;;;23.10;24.40;;;;;;5121509;28;19923;-48
2022/01/06 07:01:32;;;;;;;;;;;23.30;24.30;;;;;;5126662;28;20267;-51
2022/01/06 07:03:58;;;;;;;;;;;23.20;24.40;;;;;;5121098;28;20007;-52
2022/01/06 07:06:23;;;;;;;;;;;23.00;24.60;;;;;;5121007;28;20243;-50
2022/01/06 07:08:49;;;;;;;;;;;23.00;24.50;;;;;;5126770;28;19929;-48
2022/01/06 07:11:15;;;;;;;;;;;23.00;24.50;;;;;;5121344;28;19927;-49
2022/01/06 07:13:41;;;;;;;;;;;23.10;24.50;;;;;;5126438;28;19927;-55
2022/01/06 07:16:06;;;;;;;;;;;23.20;24.40;;;;;;5119806;28;19944;-59
2022/01/06 07:18:32;;;;;;;;;;;23.10;24.50;;;;;;5121297;28;19991;-52
2022/01/06 07:20:58;;;;;;;;;;;22.80;24.80;;;;;;5126578;28;19931;-51
2022/01/06 07:23:24;;;;;;;;;;;22.80;24.70;;;;;;5120996;28;19923;-50
2022/01/06 07:25:50;;;;;;;;;;;22.90;24.60;;;;;;5120718;28;19943;-51
2022/01/06 07:28:16;;;;;;;;;;;22.90;24.60;;;;;;5126518;28;19938;-49
2022/01/06 07:30:41;;;;;;;;;;;22.90;24.60;;;;;;5121068;28;20302;-48
2022/01/06 07:33:07;;;;;;;;;;;23.00;24.60;;;;;;5101975;28;19977;-54
2022/01/06 07:35:33;;;;;;;;;;;23.00;24.60;;;;;;5123852;28;19923;-50
2022/01/06 07:37:59;;;;;;;;;;;23.10;24.50;;;;;;5121062;28;19930;-50
2022/01/06 07:40:24;;;;;;;;;;;23.00;24.50;;;;;;5126195;28;19930;-52
2022/01/06 07:42:50;;;;;;;;;;;22.90;24.60;;;;;;5120497;28;20358;-50
2022/01/06 07:45:16;;;;;;;;;;;23.10;24.40;;;;;;5120972;28;19928;-49
2022/01/06 07:47:54;;;;;;;;;;;23.00;24.40;;;;;;5126139;28;19923;-48
2022/01/06 07:50:24;;;;;;;;;;;23.10;24.50;;;;;;5120781;28;19930;-55
2022/01/06 07:52:49;;;;;;;;;;;23.10;24.40;;;;;;5118906;28;20304;-50
2022/01/06 07:55:15;;;;;;;;;;;22.90;24.50;;;;;;5126089;28;19927;-50
2022/01/06 07:57:41;;;;;;;;;;;22.90;24.60;;;;;;5120448;28;19924;-51
2022/01/06 08:00:07;;;;;;;;;;;23.10;24.40;;;;;;5125422;27;20428;-50
2022/01/06 08:02:33;;;;;;;;;;;23.00;24.50;;;;;;5120841;28;20290;-49
2022/01/06 08:04:59;;;;;;;;;;;23.00;24.50;;;;;;5120668;28;19923;-49
2022/01/06 08:07:24;;;;;;;;;;;23.20;24.30;;;;;;5126018;28;19927;-53
2022/01/06 08:09:50;;;;;;;;;;;23.10;24.40;;;;;;5118745;28;19932;-51
2022/01/06 08:12:16;;;;;;;;;;;23.00;24.40;;;;;;5120124;28;19927;-48
2022/01/06 08:14:41;;;;;;;;;;;23.00;24.40;;;;;;5125735;28;19948;-50
2022/01/06 08:17:07;;;;;;;;;;;23.00;24.40;;;;;;5120251;28;19927;-53
2022/01/06 08:19:33;;;;;;;;;;;23.10;24.30;;;;;;5123954;28;19924;-54
2022/01/06 08:21:59;;;;;;;;;;;23.20;24.30;;;;;;5122210;28;19931;-48
2022/01/06 08:24:25;;;;;;;;;;;23.00;24.40;;;;;;5120240;28;19975;-48
2022/01/06 08:26:50;;;;;;;;;;;23.10;24.30;;;;;;5125727;28;19932;-48
2022/01/06 08:29:16;;;;;;;;;;;23.00;24.30;;;;;;5118464;28;19923;-52
2022/01/06 08:31:42;;;;;;;;;;;23.10;24.30;;;;;;5120327;28;19945;-55
2022/01/06 08:34:08;;;;;;;;;;;23.00;24.30;;;;;;5125385;28;19931;-53
2022/01/06 08:36:33;;;;;;;;;;;22.90;24.40;;;;;;5119986;28;19927;-50
2022/01/06 08:38:59;;;;;;;;;;;23.00;24.40;;;;;;5121807;28;19927;-55
2022/01/06 08:41:25;;;;;;;;;;;22.90;24.50;;;;;;5123937;28;19983;-52
2022/01/06 08:43:51;;;;;;;;;;;23.00;24.40;;;;;;5119931;28;19923;-50
2022/01/06 08:46:17;;;;;;;;;;;22.90;24.50;;;;;;5125505;28;19928;-50
2022/01/06 08:48:42;;;;;;;;;;;23.00;24.40;;;;;;5118065;28;19931;-51
2022/01/06 08:51:08;;;;;;;;;;;23.00;24.40;;;;;;5120007;28;20109;-50
2022/01/06 08:53:34;;;;;;;;;;;23.00;24.30;;;;;;5125269;28;19923;-48
2022/01/06 08:56:00;;;;;;;;;;;23.00;24.40;;;;;;5119582;28;19923;-49
2022/01/06 08:58:25;;;;;;;;;;;23.20;24.30;;;;;;5119722;28;19928;-50
2022/01/06 09:00:51;;;;;;;;;;;23.10;24.30;;;;;;5125367;28;19923;-47
2022/01/06 09:03:17;;;;;;;;;;;23.20;24.20;;;;;;5119963;28;19927;-59
2022/01/06 09:05:43;;;;;;;;;;;23.00;24.40;;;;;;5123233;28;19934;-50
2022/01/06 09:08:08;;;;;;;;;;;23.00;24.40;;;;;;5119897;28;19924;-52
2022/01/06 09:10:36;;;;;;;;;;;23.10;24.40;;;;;;5099765;28;20368;-50
2022/01/06 09:13:01;;;;;;;;;;;23.20;24.30;;;;;;5123008;27;20367;-49
2022/01/06 09:15:27;;;;;;;;;;;23.10;24.30;;;;;;5122760;28;19924;-50
2022/01/06 09:17:53;;;;;;;;;;;23.20;24.30;;;;;;5123229;28;19928;-58
2022/01/06 09:20:19;;;;;;;;;;;23.20;24.20;;;;;;5128430;28;20598;-51
2022/01/06 09:22:44;;;;;;;;;;;23.10;24.20;;;;;;5123009;28;20276;-52
2022/01/06 09:25:11;;;;;;;;;;;23.20;24.10;;;;;;5126480;27;19927;-52
2022/01/06 09:27:36;;;;;;;;;;;23.10;24.20;;;;;;5122879;28;20362;-49
2022/01/06 09:30:03;;;;;;;;;;;23.10;24.10;;;;;;5122641;28;19924;-50
2022/01/06 09:32:28;;;;;;;;;;;23.10;24.20;;;;;;5128192;28;19930;-50
2022/01/06 09:34:54;;;;;;;;;;;23.20;24.10;;;;;;5122997;28;19927;-55
2022/01/06 09:37:20;;;;;;;;;;;23.10;24.20;;;;;;5122914;28;20008;-51
2022/01/06 09:39:47;;;;;;;;;;;22.90;24.30;;;;;;5128380;28;19968;-52
2022/01/06 09:42:13;;;;;;;;;;;22.90;24.30;;;;;;5102914;28;19924;-53
2022/01/06 09:44:39;;;;;;;;;;;23.10;24.20;;;;;;5127130;28;19923;-54
2022/01/06 09:47:06;;;;;;;;;;;23.10;24.10;;;;;;5122908;28;19965;-50
2022/01/06 09:49:34;;;;;;;;;;;23.10;24.10;;;;;;5122691;28;20422;-48
2022/01/06 09:52:00;;;;;;;;;;;23.20;24.00;;;;;;5127901;28;19936;-48
2022/01/06 09:54:25;;;;;;;;;;;23.20;24.00;;;;;;5102883;28;19968;-51
2022/01/06 09:56:51;;;;;;;;;;;23.20;24.00;;;;;;5122809;28;19934;-61
2022/01/06 09:59:17;;;;;;;;;;;23.20;24.00;;;;;;5128051;28;19941;-56
2022/01/06 10:01:43;;;;;;;;;;;22.90;24.30;;;;;;5120528;28;19929;-52
2022/01/06 10:04:29;;;;;;;;;;;23.20;24.00;;;;;;5125052;28;20030;-57
2022/01/06 10:07:14;;;;;;;;;;;23.10;24.10;;;;;;5124404;28;19929;-55
2022/01/06 10:09:40;;;;;;;;;;;23.10;24.10;;;;;;5122226;28;19986;-50
2022/01/06 10:12:08;;;;;;;;;;;23.10;24.10;;;;;;5121970;28;20365;-51
2022/01/06 10:14:42;;;;;;;;;;;23.20;24.00;;;;;;5127869;28;19923;-59
2022/01/06 10:17:08;;;;;;;;;;;23.10;24.10;;;;;;5122551;28;20336;-52
2022/01/06 10:19:34;;;;;;;;;;;22.70;24.60;;;;;;5124533;28;19923;-57
2022/01/06 10:22:00;;;;;;;;;;;22.80;24.50;;;;;;5123732;28;19923;-51
2022/01/06 10:24:26;;;;;;;;;;;22.90;24.20;;;;;;5120721;27;20366;-49
2022/01/06 10:26:56;;;;;;;;;;;23.00;24.20;;;;;;5127175;28;20013;-50
2022/01/06 10:29:22;;;;;;;;;;;23.00;24.00;;;;;;5121629;28;19927;-50
2022/01/06 10:31:48;;;;;;;;;;;23.00;24.00;;;;;;5122251;28;20268;-48
2022/01/06 10:34:14;;;;;;;;;;;23.20;23.90;;;;;;5127474;28;19930;-54
2022/01/06 10:36:40;;;;;;;;;;;23.10;23.90;;;;;;5103619;28;19930;-51
2022/01/06 10:39:06;;;;;;;;;;;23.10;23.90;;;;;;5119641;28;20295;-54
2022/01/06 10:41:32;;;;;;;;;;;23.10;23.80;;;;;;5127103;28;19934;-49
2022/01/06 10:43:59;;;;;;;;;;;23.20;23.70;;;;;;5121606;28;20179;-52
2022/01/06 10:46:29;;;;;;;;;;;23.10;23.80;;;;;;5127309;28;19924;-51
2022/01/06 10:48:58;;;;;;;;;;;23.30;23.60;;;;;;5121506;28;19924;-55
2022/01/06 10:51:30;;;;;;;;;;;23.10;23.70;;;;;;5121665;28;19923;-50
2022/01/06 10:53:56;;;;;;;;;;;23.10;23.80;;;;;;5127024;28;19945;-51
2022/01/06 10:56:24;;;;;;;;;;;23.20;23.60;;;;;;5120831;28;19923;-51
2022/01/06 10:58:50;;;;;;;;;;;23.10;23.70;;;;;;5120648;28;19930;-58
2022/01/06 11:01:16;;;;;;;;;;;23.10;23.70;;;;;;5126882;28;19927;-52
2022/01/06 11:03:42;;;;;;;;;;;22.90;23.90;;;;;;5121291;28;20014;-48
2022/01/06 11:06:08;;;;;;;;;;;23.10;23.70;;;;;;5122645;28;20026;-55
2022/01/06 11:08:38;;;;;;;;;;;23.10;23.70;;;;;;5125512;28;19934;-51
2022/01/06 11:13:33;;;;;;;;;;;23.20;23.80;;;;;;5108951;28;19971;-51
2022/01/06 11:15:58;;;;;;;;;;;23.10;23.80;;;;;;5119309;28;19967;-57
2022/01/06 11:18:24;;;;;;;;;;;23.00;23.90;;;;;;5121022;28;19924;-52
2022/01/06 11:20:51;;;;;;;;;;;22.90;24.00;;;;;;5107926;28;20390;-53
2022/01/06 11:23:20;;;;;;;;;;;23.00;23.80;;;;;;5121090;28;20382;-51
2022/01/06 11:25:46;;;;;;;;;;;23.00;23.80;;;;;;5120759;28;19924;-49
2022/01/06 11:28:12;;;;;;;;;;;23.20;23.60;;;;;;5126614;28;20012;-47
2022/01/06 11:30:42;;;;;;;;;;;23.10;23.70;;;;;;5121138;28;19945;-55
2022/01/06 11:33:08;;;;;;;;;;;23.00;23.70;;;;;;5124774;28;20601;-57
2022/01/06 11:35:54;;;;;;;;;;;23.10;23.70;;;;;;5120430;27;19927;-51
2022/01/06 11:38:26;;;;;;;;;;;23.10;23.70;;;;;;5120565;28;19931;-48
2022/01/06 11:40:52;;;;;;;;;;;23.30;23.50;;;;;;5125080;28;19930;-63
2022/01/06 11:43:18;;;;;;;;;;;22.90;23.70;;;;;;5104332;28;19934;-53
2022/01/06 11:45:44;;;;;;;;;;;22.80;23.90;;;;;;5120865;28;20358;-51
2022/01/06 11:48:11;;;;;;;;;;;22.90;23.80;;;;;;5126204;28;19931;-49
2022/01/06 11:50:37;;;;;;;;;;;23.00;23.70;;;;;;5120680;28;21375;-52
2022/01/06 11:53:04;;;;;;;;;;;23.10;23.70;;;;;;5118825;28;19923;-49
2022/01/06 11:55:34;;;;;;;;;;;23.10;23.60;;;;;;5107747;28;20419;-49
2022/01/06 11:58:19;;;;;;;;;;;23.10;23.70;;;;;;5120540;28;19927;-54
2022/01/06 12:00:54;;;;;;;;;;;23.10;23.60;;;;;;5102233;28;19924;-50
2022/01/06 12:03:20;;;;;;;;;;;23.20;23.50;;;;;;5125713;28;19975;-48
2022/01/06 12:05:48;;;;;;;;;;;23.10;23.50;;;;;;5120706;28;19931;-58
2022/01/06 12:08:18;;;;;;;;;;;23.00;23.50;;;;;;5120441;28;20390;-52
2022/01/06 12:10:45;;;;;;;;;;;23.00;23.50;;;;;;5124437;28;20312;-56
2022/01/06 12:13:11;;;;;;;;;;;23.00;23.50;;;;;;5120099;28;19930;-54
2022/01/06 12:15:57;;;;;;;;;;;23.20;23.40;;;;;;5107220;28;19927;-49
2022/01/06 12:18:26;;;;;;;;;;;23.10;23.40;;;;;;5125088;28;19927;-50
2022/01/06 12:20:52;;;;;;;;;;;22.90;23.60;;;;;;5120059;28;20422;-51
2022/01/06 12:23:19;;;;;;;;;;;23.00;23.50;;;;;;5125801;28;20386;-48
2022/01/06 12:26:04;;;;;;;;;;;23.10;23.40;;;;;;5120209;28;19924;-51
2022/01/06 12:28:32;;;;;;;;;;;23.10;23.40;;;;;;5120276;28;19930;-49
2022/01/06 12:31:04;;;;;;;;;;;23.20;23.20;;;;;;5123565;28;19999;-51
2022/01/06 12:33:31;;;;;;;;;;;23.10;23.30;;;;;;5120460;28;20109;-53
2022/01/06 12:35:57;;;;;;;;;;;22.90;23.50;;;;;;5119853;28;19927;-52
2022/01/06 12:38:27;;;;;;;;;;;23.00;23.50;;;;;;5125158;28;19923;-51
2022/01/06 12:40:53;;;;;;;;;;;23.10;23.40;;;;;;5119958;28;19979;-50
2022/01/06 12:43:20;;;;;;;;;;;23.10;23.40;;;;;;5120167;28;20655;-51
2022/01/06 12:45:46;;;;;;;;;;;23.10;23.40;;;;;;5125444;28;19937;-46
2022/01/06 12:48:13;;;;;;;;;;;23.10;23.40;;;;;;5119413;27;21283;-50
2022/01/06 12:50:45;;;;;;;;;;;23.10;23.30;;;;;;5107246;28;19931;-55
2022/01/06 12:53:11;;;;;;;;;;;23.10;23.30;;;;;;5128800;28;19927;-53
2022/01/06 12:55:43;;;;;;;;;;;23.10;23.30;;;;;;5123383;28;19997;-50
2022/01/06 12:58:09;;;;;;;;;;;23.20;23.20;;;;;;5128587;28;19924;-56
2022/01/06 13:00:35;;;;;;;;;;;23.10;23.30;;;;;;5123694;28;19923;-50
2022/01/06 13:03:05;;;;;;;;;;;23.00;23.30;;;;;;5123436;28;19923;-51
2022/01/06 13:05:31;;;;;;;;;;;23.00;23.30;;;;;;5128764;28;19947;-52
2022/01/06 13:08:00;;;;;;;;;;;23.00;23.20;;;;;;5121121;28;19933;-53
2022/01/06 13:10:26;;;;;;;;;;;23.20;23.10;;;;;;5123292;28;19934;-50
2022/01/06 13:13:01;;;;;;;;;;;23.20;23.00;;;;;;5128548;28;20286;-58
2022/01/06 13:15:31;;;;;;;;;;;23.00;23.00;;;;;;5123342;28;19923;-51
2022/01/06 13:17:57;;;;;;;;;;;23.00;23.10;;;;;;5123118;28;20225;-53
2022/01/06 13:20:23;;;;;;;;;;;23.10;22.80;;;;;;5110487;28;20298;-60
2022/01/06 13:25:38;;;;;;;;;;;22.90;22.90;;;;;;5126097;28;19929;-52
2022/01/06 13:28:10;;;;;;;;;;;23.00;22.80;;;;;;5128280;28;19984;-50
2022/01/06 13:30:37;;;;;;;;;;;23.10;22.70;;;;;;5122851;28;19949;-50
2022/01/06 13:33:04;;;;;;;;;;;23.00;22.60;;;;;;5128218;28;19940;-53
2022/01/06 13:35:29;;;;;;;;;;;23.10;22.60;;;;;;5122615;28;19927;-54
2022/01/06 13:37:56;;;;;;;;;;;23.20;22.50;;;;;;5122922;28;19931;-50
2022/01/06 13:40:22;;;;;;;;;;;23.10;22.50;;;;;;5128338;28;19923;-56
2022/01/06 13:42:51;;;;;;;;;;;23.00;22.60;;;;;;5122499;28;20068;-57
2022/01/06 13:45:23;;;;;;;;;;;23.00;22.50;;;;;;5121007;28;19923;-54
2022/01/06 13:53:13;;;;;;;;;;;23.00;22.60;;;;;;5122284;28;19924;-50
2022/01/06 13:55:39;;;;;;;;;;;23.10;22.50;;;;;;5127830;28;19972;-50
2022/01/06 13:58:04;;;;;;;;;;;23.00;22.70;;;;;;5122290;27;20349;-48
2022/01/06 14:00:30;;;;;;;;;;;23.00;22.70;;;;;;5122295;28;19977;-51
2022/01/06 14:02:56;;;;;;;;;;;23.10;22.70;;;;;;5125781;28;20043;-50
2022/01/06 14:05:24;;;;;;;;;;;23.20;22.70;;;;;;5104048;28;19923;-48
2022/01/06 14:07:49;;;;;;;;;;;23.20;22.80;;;;;;5127598;28;20033;-53
2022/01/06 14:10:15;;;;;;;;;;;23.10;22.80;;;;;;5122171;28;19927;-49
2022/01/06 14:12:41;;;;;;;;;;;23.10;22.80;;;;;;5121797;28;19929;-50
2022/01/06 14:15:07;;;;;;;;;;;23.30;22.70;;;;;;5127659;28;19923;-51
2022/01/06 14:17:33;;;;;;;;;;;23.10;22.80;;;;;;5122148;28;19950;-56
2022/01/06 14:19:59;;;;;;;;;;;23.00;22.90;;;;;;5121901;28;20012;-49
2022/01/06 14:22:26;;;;;;;;;;;23.00;22.90;;;;;;5125647;28;20371;-52
2022/01/06 14:24:52;;;;;;;;;;;23.10;22.80;;;;;;5122107;28;20405;-55
2022/01/06 14:27:18;;;;;;;;;;;22.80;23.00;;;;;;5127298;28;19937;-56
2022/01/06 14:29:43;;;;;;;;;;;22.90;23.00;;;;;;5122075;28;20383;-48